الصفحة الرئيسية
METAR-TAF:

METAR-TAF

مطار :

بغداد, العراق

مطار بغداد الدولي

دائرة عرض: 33-15-45N, خط طول: 44-14-04E, ارتفاع: 35 متر

مراقبة الطقس الحالي

تاريخ ووقت الإصدار 44 دقيقة قبل الساعة 08:00UTC
ريح 4 عقدة من الجنوب/الجنوب الغربي, الاتجاه يتراوح بين الجنوب/الجنوب الشرقي و الجنوب الغربي
درجة الحرارة 18°درجة مئوية
الرطوبة 59%
ضغط 1011 hPa
الرؤية: 9000 متر

METAR: ORBI 220800Z 20004KT 160V230 9000 NSC 18/10 Q1011 NOSIG

زمن: 11:44 (08:44 UTC)

توقعات

تاريخ ووقت الإصدار 3ساعات و 44 دقيقة قبل الساعة 05:00UTC
التوقعات صالحة من22 الساعة 06 UTC إلى 23 الساعة 06 UTC
ريح 6 عقدة من الشرق/الجنوب الشرقي
الرؤية: 8000 متر
أصبح
من 22 الساعة 14 UTC إلى 22 الساعة 16 UTC
ريح 7 عقدة من الغرب/الشمال الغربي

TAF: ORBI 220500Z 2206/2306 12006KT 8000 NSC BECMG 2214/2216 30007KT

أرصاد الطقس والتوقعات من أكثر من 4000 مطار (تقارير الطقس للمطار METAR والتنبؤ بالطقس بالمطارTAF).

المحطات المتاحة هي النقط الصفراء والحمراء على الخريطة.

حرك المؤشر فوق النقطة لمعرفة اسم المحطة.

ثم انقر لمعرفة أرصاد وتوقعات الطقس.

لتغيير الخارطة: اضغط على الأزرار الخضراء مع رمز الصليب الأسود للتكبير. على الزر الأخضر مع شرطة للتصغير، أو على الأسهم الخضراء للخرائط المجاورة.


METAR-TAF: